Time;durP1;ratioP1;P1;durP2;ratioP2;P2;SDS_P1;SDS_P2;PMS_P1;PMS_P2;Temp;Humidity;BMP_temperature;BMP_pressure;BME280_temperature;BME280_humidity;BME280_pressure;Samples;Min_cycle;Max_cycle;Signal;HPM_P1;HPM_P2
2023/12/23 00:01:11;;;;;;;4.43;1.65;;;;;;;8.87;100.00;99205.25;6067743;23;20027;-90
2023/12/23 00:03:38;;;;;;;7.13;1.63;;;;;;;8.86;100.00;99206.22;6092182;23;20022;-90
2023/12/23 00:06:05;;;;;;;6.85;1.92;;;;;;;8.88;100.00;99204.28;6092596;23;20025;-90
2023/12/23 00:08:32;;;;;;;8.02;2.05;;;;;;;8.88;100.00;99220.16;6067950;23;20025;-90
2023/12/23 00:10:59;;;;;;;8.70;2.70;;;;;;;8.86;100.00;99222.13;6116270;23;20025;-91
2023/12/23 00:13:26;;;;;;;7.13;1.70;;;;;;;8.87;100.00;99212.34;6116234;23;20029;-91
2023/12/23 00:15:52;;;;;;;9.38;1.95;;;;;;;8.88;100.00;99232.56;6068567;23;20033;-91
2023/12/23 00:18:20;;;;;;;6.90;1.40;;;;;;;8.88;100.00;99236.06;6116306;23;20025;-91
2023/12/23 00:20:47;;;;;;;5.40;1.50;;;;;;;8.87;100.00;99239.66;6116323;23;20088;-90
2023/12/23 00:23:14;;;;;;;10.93;2.15;;;;;;;8.89;100.00;99256.25;6091243;23;20484;-89
2023/12/23 00:25:41;;;;;;;13.80;1.95;;;;;;;8.88;100.00;99254.59;6116854;23;20016;-91
2023/12/23 00:28:08;;;;;;;6.80;1.75;;;;;;;8.87;100.00;99242.31;6115935;23;20463;-90
2023/12/23 00:30:35;;;;;;;5.45;1.80;;;;;;;8.91;100.00;99238.41;6116284;23;20025;-91
2023/12/23 00:33:02;;;;;;;10.05;1.65;;;;;;;8.87;100.00;99250.25;6116817;23;20044;-90
2023/12/23 00:35:30;;;;;;;10.77;1.88;;;;;;;8.87;100.00;99247.59;6091937;23;20108;-90
2023/12/23 00:37:56;;;;;;;5.93;1.65;;;;;;;8.89;100.00;99253.59;6068368;23;20469;-89
2023/12/23 00:40:23;;;;;;;6.78;1.55;;;;;;;8.89;100.00;99256.25;6116797;23;20029;-90
2023/12/23 00:42:50;;;;;;;4.57;1.42;;;;;;;8.90;100.00;99259.72;6067794;23;20029;-89
2023/12/23 00:45:17;;;;;;;6.32;1.90;;;;;;;8.90;100.00;99263.22;6067370;23;20022;-89
2023/12/23 00:47:44;;;;;;;7.40;1.60;;;;;;;8.92;100.00;99268.38;6068290;23;20024;-90
2023/12/23 00:50:11;;;;;;;8.77;1.77;;;;;;;8.91;100.00;99280.78;6067971;23;20029;-90
2023/12/23 00:52:38;;;;;;;9.60;2.33;;;;;;;8.89;100.00;99272.13;6067129;23;20032;-90
2023/12/23 00:55:06;;;;;;;7.55;2.22;;;;;;;8.92;100.00;99276.31;6069430;23;20049;-89
2023/12/23 00:57:32;;;;;;;7.50;1.83;;;;;;;8.92;100.00;99297.50;6092645;23;20025;-90
2023/12/23 00:59:59;;;;;;;5.18;1.35;;;;;;;8.94;100.00;99307.97;6091915;23;20025;-90
2023/12/23 01:02:26;;;;;;;6.13;1.60;;;;;;;8.90;100.00;99292.34;6092776;23;20056;-90
2023/12/23 01:04:54;;;;;;;6.07;1.65;;;;;;;8.88;100.00;99286.34;6092856;23;20342;-91
2023/12/23 01:07:21;;;;;;;7.53;1.27;;;;;;;8.91;100.00;99306.44;6078920;23;20033;-91
2023/12/23 01:09:48;;;;;;;3.63;1.27;;;;;;;8.90;100.00;99302.94;6094386;23;20050;-90
2023/12/23 01:12:15;;;;;;;6.45;1.13;;;;;;;8.91;100.00;99315.19;6071300;23;20148;-90
2023/12/23 01:14:44;;;;;;;8.45;1.38;;;;;;;8.93;100.00;99293.91;6069707;23;20025;-91
2023/12/23 01:17:11;;;;;;;10.57;2.03;;;;;;;8.85;100.00;99296.38;6069184;23;20030;-90
2023/12/23 01:19:38;;;;;;;6.25;1.50;;;;;;;8.90;100.00;99299.44;6094116;23;20017;-91
2023/12/23 01:22:05;;;;;;;9.52;2.08;;;;;;;8.90;100.00;99308.25;6073010;23;20033;-91
2023/12/23 01:24:31;;;;;;;8.02;1.83;;;;;;;8.90;100.00;99310.03;6069733;23;20029;-89
2023/12/23 01:26:58;;;;;;;8.40;1.40;;;;;;;8.84;100.00;99321.19;6046343;23;20072;-90
2023/12/23 01:29:25;;;;;;;8.57;1.67;;;;;;;8.88;100.00;99317.31;6046103;23;20029;-90
2023/12/23 01:31:52;;;;;;;4.07;1.20;;;;;;;8.91;100.00;99333.72;6074557;23;20025;-90
2023/12/23 01:34:19;;;;;;;8.85;2.20;;;;;;;8.90;100.00;99321.47;6093223;23;20025;-89
2023/12/23 01:36:46;;;;;;;8.98;1.92;;;;;;;8.90;100.00;99331.22;6070164;23;20519;-90
2023/12/23 01:39:13;;;;;;;9.00;2.30;;;;;;;8.93;100.00;99346.84;6103077;23;20025;-90
2023/12/23 01:41:40;;;;;;;6.05;1.50;;;;;;;8.92;100.00;99342.50;6070931;23;20053;-91
2023/12/23 01:44:07;;;;;;;8.98;2.45;;;;;;;8.91;100.00;99352.28;6118019;23;20360;-89
2023/12/23 01:46:34;;;;;;;13.38;3.00;;;;;;;8.88;100.00;99349.91;6070596;23;20039;-89
2023/12/23 01:49:01;;;;;;;8.48;1.55;;;;;;;8.88;100.00;99347.25;6070411;23;20035;-89
2023/12/23 01:51:29;;;;;;;10.52;2.03;;;;;;;8.89;100.00;99356.84;6045667;23;20025;-89
2023/12/23 01:54:00;;;;;;;7.65;1.88;;;;;;;8.91;100.00;99354.91;6143799;23;20041;-88
2023/12/23 01:56:27;;;;;;;9.65;2.22;;;;;;;8.88;100.00;99327.88;6093809;23;20025;-90
2023/12/23 01:58:54;;;;;;;8.43;1.98;;;;;;;8.91;100.00;99341.69;6074404;23;20069;-89
2023/12/23 02:01:21;;;;;;;8.55;1.60;;;;;;;8.90;100.00;99328.56;6117152;23;20028;-90
2023/12/23 02:03:48;;;;;;;7.90;3.03;;;;;;;8.85;100.00;99325.50;6069343;23;20541;-91
2023/12/23 02:06:16;;;;;;;7.90;2.00;;;;;;;8.87;100.00;99329.69;6070956;23;20025;-91
2023/12/23 02:08:43;;;;;;;9.02;1.92;;;;;;;8.91;100.00;99335.56;6093854;23;20052;-91
2023/12/23 02:11:13;;;;;;;7.93;1.48;;;;;;;8.90;100.00;99334.72;6093844;23;20025;-89
2023/12/23 02:13:46;;;;;;;7.72;1.80;;;;;;;8.89;100.00;99338.31;6093985;23;20033;-90
2023/12/23 02:16:13;;;;;;;11.68;2.33;;;;;;;8.88;100.00;99363.13;6093533;23;20021;-90
2023/12/23 02:18:40;;;;;;;7.32;1.60;;;;;;;8.82;100.00;99339.84;6093376;23;20105;-91
2023/12/23 02:21:07;;;;;;;6.53;1.75;;;;;;;8.83;100.00;99341.53;6116938;23;20017;-90
2023/12/23 02:23:34;;;;;;;11.73;1.60;;;;;;;8.90;100.00;99370.94;6092385;23;20043;-91
2023/12/23 02:26:01;;;;;;;10.55;2.38;;;;;;;8.87;100.00;99395.88;6069090;23;20121;-89
2023/12/23 02:28:28;;;;;;;12.63;2.33;;;;;;;8.86;100.00;99393.38;6071786;23;20018;-89
2023/12/23 02:30:56;;;;;;;9.23;1.95;;;;;;;8.89;100.00;99387.81;6072036;23;20368;-89
2023/12/23 02:33:23;;;;;;;8.80;1.90;;;;;;;8.88;100.00;99384.31;6093486;23;20449;-89
2023/12/23 02:35:53;;;;;;;4.88;1.50;;;;;;;8.90;100.00;99403.56;6093871;23;20325;-89
2023/12/23 02:38:21;;;;;;;10.70;2.10;;;;;;;8.90;100.00;99400.91;6118220;23;20025;-90
2023/12/23 02:40:48;;;;;;;13.15;2.17;;;;;;;8.87;100.00;99392.38;6117056;23;20092;-88
2023/12/23 02:43:15;;;;;;;19.90;2.35;;;;;;;8.89;100.00;99387.81;6092249;23;20025;-90
2023/12/23 02:45:42;;;;;;;5.95;1.92;;;;;;;8.88;100.00;99376.38;6144047;23;20076;-89
2023/12/23 02:48:09;;;;;;;9.77;1.83;;;;;;;8.87;100.00;99366.75;6092734;23;20025;-89
2023/12/23 02:50:37;;;;;;;8.75;2.33;;;;;;;8.89;100.00;99385.97;6117511;23;20021;-88
2023/12/23 02:53:07;;;;;;;10.35;2.35;;;;;;;8.88;100.00;99379.03;6116956;23;20026;-89
2023/12/23 02:55:36;;;;;;;7.25;2.53;;;;;;;8.87;100.00;99382.63;6143449;23;20061;-89
2023/12/23 02:58:03;;;;;;;13.95;2.65;;;;;;;8.88;100.00;99375.56;6092697;23;20712;-89
2023/12/23 03:00:29;;;;;;;13.27;2.35;;;;;;;8.87;100.00;99372.03;6116507;23;20080;-88
2023/12/23 03:02:57;;;;;;;7.07;2.42;;;;;;;8.84;100.00;99374.97;6117283;23;20026;-88
2023/12/23 03:05:24;;;;;;;14.57;2.67;;;;;;;8.87;100.00;99376.50;6093370;23;20025;-88
2023/12/23 03:07:50;;;;;;;7.40;2.50;;;;;;;8.88;100.00;99367.59;6143557;23;20076;-88
2023/12/23 03:10:17;;;;;;;7.50;2.83;;;;;;;8.86;100.00;99375.66;6149993;23;20040;-90
2023/12/23 03:12:46;;;;;;;12.07;2.22;;;;;;;8.90;100.00;99382.38;6070282;23;20025;-90
2023/12/23 03:15:14;;;;;;;7.97;2.15;;;;;;;8.89;100.00;99385.16;6094073;23;20479;-89
2023/12/23 03:17:40;;;;;;;10.38;2.05;;;;;;;8.90;100.00;99392.97;6093169;23;20030;-87
2023/12/23 03:20:08;;;;;;;10.45;2.30;;;;;;;8.90;100.00;99400.91;6069521;23;20028;-89
2023/12/23 03:22:35;;;;;;;13.68;2.35;;;;;;;8.88;100.00;99392.28;6093600;23;20088;-87
2023/12/23 03:25:03;;;;;;;8.23;2.38;;;;;;;8.88;100.00;99392.28;6118264;23;20049;-90
2023/12/23 03:27:30;;;;;;;11.35;2.40;;;;;;;8.86;100.00;99380.97;6117584;23;20490;-90
2023/12/23 03:29:56;;;;;;;10.95;2.67;;;;;;;8.86;100.00;99399.50;6092773;23;20047;-90
2023/12/23 03:32:24;;;;;;;7.30;2.80;;;;;;;8.83;100.00;99389.19;6117287;23;20325;-90
2023/12/23 03:34:51;;;;;;;9.65;2.50;;;;;;;8.85;100.00;99394.31;6045910;23;20021;-90
2023/12/23 03:37:18;;;;;;;9.27;2.92;;;;;;;8.82;100.00;99384.84;6044999;23;20033;-89
2023/12/23 03:39:45;;;;;;;10.63;2.65;;;;;;;8.81;100.00;99377.06;6092791;23;20065;-90
2023/12/23 03:42:11;;;;;;;7.97;2.70;;;;;;;8.81;100.00;99372.59;6069218;23;20033;-88
2023/12/23 03:44:38;;;;;;;14.35;3.00;;;;;;;8.83;100.00;99375.94;6093064;23;20029;-89
2023/12/23 03:47:05;;;;;;;8.95;2.45;;;;;;;8.83;100.00;99372.47;6116733;23;20107;-90
2023/12/23 03:49:32;;;;;;;10.02;2.67;;;;;;;8.81;100.00;99372.59;6032535;23;20018;-90
2023/12/23 03:51:59;;;;;;;13.30;2.80;;;;;;;8.85;100.00;99389.91;6069387;23;20025;-90
2023/12/23 03:54:26;;;;;;;12.60;4.32;;;;;;;8.83;100.00;99364.53;6092113;23;20030;-90
2023/12/23 03:56:53;;;;;;;13.70;2.80;;;;;;;8.78;100.00;99364.94;6117987;23;20463;-90
2023/12/23 03:59:20;;;;;;;13.18;3.08;;;;;;;8.79;100.00;99365.75;6092681;23;20067;-89
2023/12/23 04:01:47;;;;;;;9.27;2.55;;;;;;;8.82;100.00;99357.53;6093067;23;20030;-90
2023/12/23 04:04:14;;;;;;;9.82;3.45;;;;;;;8.80;100.00;99341.81;6117947;23;20025;-90
2023/12/23 04:06:41;;;;;;;10.80;2.70;;;;;;;8.80;100.00;99355.06;6068556;23;20032;-89
2023/12/23 04:09:10;;;;;;;13.60;2.90;;;;;;;8.80;100.00;99341.81;6068477;23;20459;-90
2023/12/23 04:11:37;;;;;;;11.80;2.50;;;;;;;8.82;100.00;99353.06;6069015;23;20029;-90
2023/12/23 04:14:04;;;;;;;13.93;2.38;;;;;;;8.83;100.00;99361.88;6069115;23;20029;-89
2023/12/23 04:16:31;;;;;;;8.98;1.88;;;;;;;8.83;100.00;99365.38;6092948;23;20037;-90
2023/12/23 04:18:58;;;;;;;10.50;2.33;;;;;;;8.78;100.00;99361.47;6117528;23;20581;-90
2023/12/23 04:21:25;;;;;;;13.73;2.30;;;;;;;8.80;100.00;99363.00;6093269;23;20545;-90
2023/12/23 04:23:51;;;;;;;9.43;2.30;;;;;;;8.83;100.00;99361.88;6093057;23;20479;-88
2023/12/23 04:26:18;;;;;;;11.63;2.63;;;;;;;8.83;100.00;99356.59;6045074;23;20037;-90
2023/12/23 04:28:45;;;;;;;15.90;2.60;;;;;;;8.85;100.00;99346.66;6068631;23;20048;-90
2023/12/23 04:31:13;;;;;;;15.02;2.45;;;;;;;8.80;100.00;99357.69;6116733;23;20022;-90
2023/12/23 04:33:40;;;;;;;13.57;2.63;;;;;;;8.82;100.00;99352.25;6044892;23;20357;-88
2023/12/23 04:36:08;;;;;;;10.27;1.85;;;;;;;8.83;100.00;99364.53;6117217;23;20468;-91
2023/12/23 04:38:35;;;;;;;17.30;3.58;;;;;;;8.79;100.00;99356.00;6068011;23;20040;-89
2023/12/23 04:41:02;;;;;;;10.82;2.40;;;;;;;8.80;100.00;99344.47;6043626;23;20045;-90
2023/12/23 04:43:31;;;;;;;11.02;2.28;;;;;;;8.79;100.00;99357.81;6093740;23;20033;-89
2023/12/23 04:45:58;;;;;;;12.15;2.80;;;;;;;8.81;100.00;99359.34;6116299;23;20105;-90
2023/12/23 04:48:26;;;;;;;8.25;2.10;;;;;;;8.81;100.00;99342.66;6069589;23;20325;-90
2023/12/23 04:50:54;;;;;;;7.40;2.70;;;;;;;8.83;100.00;99328.28;6092677;23;20033;-89
2023/12/23 04:53:21;;;;;;;10.50;2.55;;;;;;;8.85;100.00;99339.59;6116640;23;20043;-89
2023/12/23 04:55:49;;;;;;;8.27;2.00;;;;;;;8.82;100.00;99326.59;6092376;23;20464;-89
2023/12/23 04:58:16;;;;;;;9.85;2.55;;;;;;;8.81;100.00;99330.25;6117447;23;20028;-90
2023/12/23 05:00:43;;;;;;;16.25;3.63;;;;;;;8.83;100.00;99332.75;6068953;23;20014;-90
2023/12/23 05:03:10;;;;;;;6.75;1.70;;;;;;;8.77;100.00;99328.81;6116143;23;20024;-90
2023/12/23 05:05:37;;;;;;;13.02;2.53;;;;;;;8.78;100.00;99329.69;6091673;23;20021;-89
2023/12/23 05:08:04;;;;;;;11.13;2.70;;;;;;;8.80;100.00;99330.34;6093565;23;20508;-91
2023/12/23 05:10:31;;;;;;;9.65;2.75;;;;;;;8.78;100.00;99314.63;6043744;23;20049;-90
2023/12/23 05:12:58;;;;;;;9.65;2.50;;;;;;;8.76;100.00;99316.56;6099749;23;20029;-90
2023/12/23 05:15:25;;;;;;;10.90;2.75;;;;;;;8.79;100.00;99326.06;6044618;23;20084;-90
2023/12/23 05:17:52;;;;;;;13.40;2.60;;;;;;;8.81;100.00;99326.75;6068741;23;20055;-89
2023/12/23 05:20:20;;;;;;;6.90;2.22;;;;;;;8.78;100.00;99333.16;6068468;23;20030;-90
2023/12/23 05:22:47;;;;;;;8.48;2.45;;;;;;;8.83;100.00;99332.75;6067973;23;20023;-89
2023/12/23 05:25:15;;;;;;;9.60;2.45;;;;;;;8.82;100.00;99331.91;6091990;23;20022;-90
2023/12/23 05:27:41;;;;;;;9.32;3.05;;;;;;;8.80;100.00;99319.78;6115779;23;20390;-90
2023/12/23 05:30:09;;;;;;;15.38;3.17;;;;;;;8.82;100.00;99331.06;6068596;23;20096;-90
2023/12/23 05:32:36;;;;;;;9.18;3.00;;;;;;;8.80;100.00;99320.63;6092292;23;20093;-90
2023/12/23 05:35:03;;;;;;;15.15;3.00;;;;;;;8.84;100.00;99313.25;6067740;23;20025;-90
2023/12/23 05:37:30;;;;;;;11.20;3.35;;;;;;;8.81;100.00;99308.22;6067613;23;20025;-90
2023/12/23 05:39:57;;;;;;;9.25;3.60;;;;;;;8.82;100.00;99315.19;6068672;23;20479;-90
2023/12/23 05:42:25;;;;;;;9.32;2.92;;;;;;;8.83;100.00;99311.59;6067370;23;20029;-90
2023/12/23 05:44:52;;;;;;;11.23;3.08;;;;;;;8.83;100.00;99320.34;6068190;23;20352;-90
2023/12/23 05:47:19;;;;;;;7.28;2.63;;;;;;;8.84;100.00;99310.59;6092602;23;20025;-90
2023/12/23 05:49:46;;;;;;;14.27;3.33;;;;;;;8.80;100.00;99328.56;6090525;23;20030;-89
2023/12/23 05:52:12;;;;;;;10.13;3.72;;;;;;;8.77;100.00;99312.09;6093180;23;20060;-89
2023/12/23 05:54:39;;;;;;;8.55;2.97;;;;;;;8.80;100.00;99317.13;6070033;23;20120;-88
2023/12/23 05:57:06;;;;;;;6.40;2.85;;;;;;;8.81;100.00;99310.88;6068761;23;20049;-89
2023/12/23 05:59:33;;;;;;;12.38;3.38;;;;;;;8.81;100.00;99309.06;6069259;23;20387;-89
2023/12/23 06:02:00;;;;;;;14.23;3.03;;;;;;;8.79;100.00;99296.94;6070151;23;20021;-90
2023/12/23 06:04:27;;;;;;;7.45;2.70;;;;;;;8.82;100.00;99312.53;6069364;23;20547;-90
2023/12/23 06:06:54;;;;;;;13.77;2.80;;;;;;;8.82;100.00;99316.00;6143846;23;20025;-89
2023/12/23 06:09:21;;;;;;;7.53;3.05;;;;;;;8.81;100.00;99311.72;6097980;23;20396;-90
2023/12/23 06:11:48;;;;;;;8.40;2.80;;;;;;;8.82;100.00;99313.38;6044870;23;20035;-91
2023/12/23 06:14:14;;;;;;;11.88;2.30;;;;;;;8.82;100.00;99305.44;6099122;23;20024;-91
2023/12/23 06:16:41;;;;;;;7.50;2.63;;;;;;;8.80;100.00;99294.16;6069763;23;20025;-90
2023/12/23 06:19:08;;;;;;;8.40;2.38;;;;;;;8.81;100.00;99305.59;6069287;23;20035;-90
2023/12/23 06:21:36;;;;;;;9.85;2.60;;;;;;;8.74;100.00;99294.69;6077567;23;20006;-90
2023/12/23 06:24:03;;;;;;;11.05;2.55;;;;;;;8.79;100.00;99299.56;6069539;23;20826;-90
2023/12/23 06:26:30;;;;;;;9.05;2.38;;;;;;;8.79;100.00;99299.56;6068101;23;20356;-90
2023/12/23 06:28:57;;;;;;;9.35;2.45;;;;;;;8.80;100.00;99298.59;6093777;23;21789;-90
2023/12/23 06:31:24;;;;;;;9.65;2.22;;;;;;;8.83;100.00;99308.94;6068450;23;20049;-90
2023/12/23 06:33:51;;;;;;;9.98;2.22;;;;;;;8.83;100.00;99301.00;6092410;23;20021;-90
2023/12/23 06:36:18;;;;;;;15.77;4.70;;;;;;;8.81;100.00;99298.47;6069613;23;20080;-89
2023/12/23 06:38:44;;;;;;;9.77;2.75;;;;;;;8.74;100.00;99296.50;6068863;23;20472;-90
2023/12/23 06:41:12;;;;;;;17.40;3.80;;;;;;;8.77;100.00;99307.66;6092914;23;20021;-91
2023/12/23 06:43:39;;;;;;;12.65;3.90;;;;;;;8.76;100.00;99311.28;6093906;23;22425;-90
2023/12/23 06:46:18;;;;;;;8.65;3.47;;;;;;;8.80;100.00;99309.19;6049597;23;20018;-90
2023/12/23 06:48:45;;;;;;;10.43;3.13;;;;;;;8.81;100.00;99306.41;6045986;23;20024;-90
2023/12/23 06:51:12;;;;;;;19.33;3.33;;;;;;;8.81;100.00;99302.94;6068666;23;20030;-90
2023/12/23 06:53:39;;;;;;;11.50;2.70;;;;;;;8.80;100.00;99304.75;6093784;23;20013;-90
2023/12/23 06:56:06;;;;;;;13.23;2.40;;;;;;;8.78;100.00;99282.03;6069317;23;20031;-88
2023/12/23 06:58:34;;;;;;;8.65;2.50;;;;;;;8.76;100.00;99274.22;6116802;23;20029;-89
2023/12/23 07:01:01;;;;;;;8.30;2.75;;;;;;;8.78;100.00;99279.38;6067687;23;20434;-91
2023/12/23 07:03:28;;;;;;;12.00;2.85;;;;;;;8.73;100.00;99287.75;6067974;23;20060;-90
2023/12/23 07:05:55;;;;;;;7.43;2.45;;;;;;;8.74;100.00;99284.09;6117363;23;20458;-90
2023/12/23 07:08:22;;;;;;;11.95;3.53;;;;;;;8.77;100.00;99283.00;6116234;23;20032;-91
2023/12/23 07:10:50;;;;;;;8.27;2.97;;;;;;;8.76;100.00;99286.63;6092554;23;20026;-90
2023/12/23 07:13:17;;;;;;;9.55;2.78;;;;;;;8.74;100.00;99286.75;6091251;23;20080;-91
2023/12/23 07:15:44;;;;;;;11.52;2.88;;;;;;;8.69;100.00;99270.44;6068684;23;20448;-90
2023/12/23 07:18:11;;;;;;;10.48;2.97;;;;;;;8.67;100.00;99265.28;6044204;23;20025;-91
2023/12/23 07:20:39;;;;;;;10.98;2.90;;;;;;;8.73;100.00;99265.69;6092560;23;20448;-90
2023/12/23 07:23:06;;;;;;;6.75;2.50;;;;;;;8.71;100.00;99276.44;6088845;23;20090;-88
2023/12/23 07:25:33;;;;;;;6.47;2.50;;;;;;;8.74;100.00;99275.34;6097093;23;20018;-90
2023/12/23 07:28:00;;;;;;;4.90;2.22;;;;;;;8.73;100.00;99276.28;6073966;23;20029;-90
2023/12/23 07:30:27;;;;;;;13.63;3.05;;;;;;;8.73;100.00;99300.97;6069226;23;20028;-89
2023/12/23 07:32:54;;;;;;;15.95;3.22;;;;;;;8.73;100.00;99289.53;6098264;23;20029;-91
2023/12/23 07:35:22;;;;;;;8.70;2.60;;;;;;;8.77;100.00;99301.53;6044122;23;20033;-91
2023/12/23 07:37:50;;;;;;;7.53;2.50;;;;;;;8.77;100.00;99312.09;6092044;23;20448;-89
2023/12/23 07:40:17;;;;;;;8.68;3.40;;;;;;;8.69;100.00;99294.25;6068023;23;20022;-90
2023/12/23 07:42:44;;;;;;;14.40;3.67;;;;;;;8.74;100.00;99321.16;6092367;23;20033;-90
2023/12/23 07:45:11;;;;;;;9.70;2.85;;;;;;;8.71;100.00;99302.91;6091120;23;20671;-90
2023/12/23 07:47:38;;;;;;;11.90;3.08;;;;;;;8.72;100.00;99293.16;6092077;23;20024;-91
2023/12/23 07:50:05;;;;;;;9.73;3.05;;;;;;;8.73;100.00;99290.38;6098781;23;20076;-90
2023/12/23 07:52:33;;;;;;;9.32;2.80;;;;;;;8.73;100.00;99292.16;6043597;23;20033;-90
2023/12/23 07:55:00;;;;;;;10.00;2.72;;;;;;;8.60;100.00;99290.66;6117230;23;20021;-89
2023/12/23 07:57:27;;;;;;;12.85;3.08;;;;;;;8.72;100.00;99301.94;6067143;23;20103;-90
2023/12/23 07:59:53;;;;;;;7.07;2.40;;;;;;;8.72;100.00;99290.50;6091782;23;20055;-90
2023/12/23 08:02:20;;;;;;;8.80;3.13;;;;;;;8.65;100.00;99290.22;6092345;23;20037;-89
2023/12/23 08:04:48;;;;;;;6.97;2.72;;;;;;;8.65;100.00;99293.72;6068175;23;20448;-90
2023/12/23 08:07:15;;;;;;;7.05;2.70;;;;;;;8.71;100.00;99291.50;6116083;23;20539;-90
2023/12/23 08:09:42;;;;;;;6.35;2.17;;;;;;;8.72;100.00;99279.91;6093084;23;20068;-90
2023/12/23 08:12:09;;;;;;;8.38;4.03;;;;;;;8.75;100.00;99295.53;6070840;23;20080;-90
2023/12/23 08:14:36;;;;;;;10.18;3.47;;;;;;;8.63;100.00;99292.19;6091503;23;20078;-88
2023/12/23 08:17:03;;;;;;;8.05;2.47;;;;;;;8.66;100.00;99282.16;6091312;23;20019;-90
2023/12/23 08:19:30;;;;;;;6.85;2.38;;;;;;;8.73;100.00;99305.41;6115305;23;20030;-90
2023/12/23 08:21:57;;;;;;;12.25;2.80;;;;;;;8.76;100.00;99326.34;6115547;23;20036;-91
2023/12/23 08:24:25;;;;;;;5.95;2.53;;;;;;;8.69;100.00;99315.44;6116598;23;20032;-91
2023/12/23 08:26:51;;;;;;;5.55;2.28;;;;;;;8.68;100.00;99314.63;6042929;23;20025;-90
2023/12/23 08:29:18;;;;;;;3.45;2.10;;;;;;;8.69;100.00;99318.09;6090704;23;20499;-90
2023/12/23 08:31:46;;;;;;;3.78;1.85;;;;;;;8.74;100.00;99312.38;6068364;23;20348;-90
2023/12/23 08:34:13;;;;;;;8.30;2.05;;;;;;;8.78;100.00;99308.50;6043465;23;20031;-89
2023/12/23 08:36:40;;;;;;;5.90;1.85;;;;;;;8.76;100.00;99305.16;6114884;23;20364;-89
2023/12/23 08:39:07;;;;;;;3.90;1.92;;;;;;;8.76;100.00;99316.56;6092485;23;20021;-89
2023/12/23 08:41:35;;;;;;;9.38;3.20;;;;;;;8.74;100.00;99301.81;6091001;23;20405;-89
2023/12/23 08:44:02;;;;;;;2.53;1.80;;;;;;;8.78;100.00;99316.44;6091297;23;20435;-89
2023/12/23 08:46:30;;;;;;;3.92;1.77;;;;;;;8.74;100.00;99307.94;6115427;23;20080;-89
2023/12/23 08:48:57;;;;;;;3.42;1.85;;;;;;;8.77;100.00;99298.88;6092684;23;20025;-89
2023/12/23 08:51:29;;;;;;;3.88;1.67;;;;;;;8.82;100.00;99307.25;6092753;23;20400;-90
2023/12/23 08:53:56;;;;;;;2.97;1.40;;;;;;;8.80;100.00;99309.19;6093043;23;20186;-90
2023/12/23 08:56:23;;;;;;;5.38;2.28;;;;;;;8.79;100.00;99294.28;6068390;23;20081;-89
2023/12/23 08:58:50;;;;;;;4.10;1.90;;;;;;;8.75;100.00;99306.97;6092304;23;20025;-90
2023/12/23 09:01:17;;;;;;;5.93;1.83;;;;;;;8.77;100.00;99306.81;6067868;23;20033;-90
2023/12/23 09:03:44;;;;;;;7.43;1.67;;;;;;;8.80;100.00;99315.34;6091447;23;20465;-89
2023/12/23 09:06:12;;;;;;;2.80;1.60;;;;;;;8.68;100.00;99303.19;6068609;23;20101;-90
2023/12/23 09:08:39;;;;;;;2.65;1.50;;;;;;;8.67;100.00;99318.22;6092265;23;20025;-90
2023/12/23 09:11:06;;;;;;;3.00;1.58;;;;;;;8.58;100.00;99336.75;6091219;23;20534;-89
2023/12/23 09:13:33;;;;;;;4.10;1.40;;;;;;;8.72;100.00;99344.28;6067698;23;20402;-89
2023/12/23 09:16:03;;;;;;;4.85;1.92;;;;;;;8.74;100.00;99330.91;6115648;23;20543;-89
2023/12/23 09:18:30;;;;;;;3.42;1.60;;;;;;;8.77;100.00;99325.34;6068141;23;20036;-89
2023/12/23 09:20:57;;;;;;;4.35;1.50;;;;;;;8.73;100.00;99313.34;6091280;23;20037;-89
2023/12/23 09:23:24;;;;;;;1.27;1.15;;;;;;;8.74;100.00;99333.56;6044633;23;20025;-89
2023/12/23 09:25:51;;;;;;;2.63;1.38;;;;;;;8.73;100.00;99326.59;6091945;23;20030;-89
2023/12/23 09:28:19;;;;;;;3.20;1.10;;;;;;;8.73;100.00;99322.16;6069367;23;20025;-89
2023/12/23 09:30:46;;;;;;;1.00;1.00;;;;;;;8.70;100.00;99322.41;6118671;23;20021;-89
2023/12/23 09:33:13;;;;;;;2.47;1.00;;;;;;;8.73;100.00;99316.00;6068292;23;20047;-89
2023/12/23 09:35:40;;;;;;;3.40;1.05;;;;;;;8.69;100.00;99321.56;6077350;23;20482;-89
2023/12/23 09:38:07;;;;;;;10.35;1.50;;;;;;;8.73;100.00;99347.75;6093660;23;20392;-89
2023/12/23 09:40:34;;;;;;;2.92;1.00;;;;;;;8.72;100.00;99346.09;6044646;23;20056;-90
2023/12/23 09:43:01;;;;;;;2.10;0.80;;;;;;;8.74;100.00;99333.56;6069120;23;20460;-89
2023/12/23 09:45:30;;;;;;;2.45;0.90;;;;;;;8.75;100.00;99319.34;6070423;23;20021;-89
2023/12/23 09:47:57;;;;;;;2.47;1.17;;;;;;;8.78;100.00;99321.75;6071514;23;20049;-89
2023/12/23 09:50:24;;;;;;;2.17;1.25;;;;;;;8.75;100.00;99327.28;6093282;23;20033;-89
2023/12/23 09:52:55;;;;;;;0.95;0.73;;;;;;;8.76;100.00;99327.16;6117140;23;20449;-89
2023/12/23 09:55:23;;;;;;;2.65;1.08;;;;;;;8.78;100.00;99350.88;6093795;23;20096;-89
2023/12/23 09:57:49;;;;;;;2.15;1.50;;;;;;;8.76;100.00;99344.88;6093515;23;20022;-89
2023/12/23 10:00:17;;;;;;;5.45;1.20;;;;;;;8.76;100.00;99336.91;6072951;23;20479;-89
2023/12/23 10:02:44;;;;;;;1.73;1.30;;;;;;;8.72;100.00;99349.56;6092693;23;20542;-90
2023/12/23 10:05:12;;;;;;;3.03;1.23;;;;;;;8.73;100.00;99345.97;6068978;23;20124;-89
2023/12/23 10:07:39;;;;;;;2.30;1.25;;;;;;;8.74;100.00;99345.00;6117041;23;20089;-89
2023/12/23 10:10:07;;;;;;;1.42;0.85;;;;;;;8.73;100.00;99347.75;6116821;23;20033;-89
2023/12/23 10:12:33;;;;;;;4.28;1.08;;;;;;;8.74;100.00;99355.56;6143075;23;20022;-89
2023/12/23 10:15:00;;;;;;;1.38;0.80;;;;;;;8.76;100.00;99343.03;6069277;23;20026;-89
2023/12/23 10:17:27;;;;;;;1.27;1.00;;;;;;;8.79;100.00;99339.28;6116958;23;20016;-90
2023/12/23 10:19:55;;;;;;;1.15;1.00;;;;;;;8.74;100.00;99338.88;6068487;23;20014;-90
2023/12/23 10:22:24;;;;;;;2.42;1.33;;;;;;;8.77;100.00;99323.53;6092370;23;20372;-90
2023/12/23 10:24:51;;;;;;;3.17;1.17;;;;;;;8.74;100.00;99323.81;6069906;23;20084;-89
2023/12/23 10:27:18;;;;;;;2.00;1.00;;;;;;;8.73;100.00;99322.16;6068905;23;20774;-90
2023/12/23 10:29:48;;;;;;;4.15;1.48;;;;;;;8.78;100.00;99321.75;6117323;23;20738;-90
2023/12/23 10:32:17;;;;;;;2.10;0.95;;;;;;;8.77;100.00;99318.25;6068477;23;20030;-90
2023/12/23 10:34:49;;;;;;;2.00;0.93;;;;;;;8.74;100.00;99317.69;6068700;23;20428;-90
2023/12/23 10:37:16;;;;;;;2.20;0.90;;;;;;;8.80;100.00;99315.34;6092506;23;20656;-90
2023/12/23 10:39:54;;;;;;;1.58;1.00;;;;;;;8.79;100.00;99300.41;6068680;23;20096;-91
2023/12/23 10:42:23;;;;;;;2.78;1.00;;;;;;;8.79;100.00;99326.06;6068607;23;20033;-90
2023/12/23 10:44:51;;;;;;;1.98;1.30;;;;;;;8.83;100.00;99330.94;6116817;23;20113;-90
2023/12/23 10:47:18;;;;;;;2.42;1.35;;;;;;;8.79;100.00;99326.06;6080483;23;20027;-90
2023/12/23 10:49:46;;;;;;;1.35;0.98;;;;;;;8.83;100.00;99332.75;6091964;23;20472;-90
2023/12/23 10:52:13;;;;;;;1.08;0.88;;;;;;;8.82;100.00;99331.06;6091905;23;20025;-89
2023/12/23 10:54:40;;;;;;;2.97;0.98;;;;;;;8.84;100.00;99311.44;6093061;23;20419;-90
2023/12/23 10:57:09;;;;;;;2.92;0.70;;;;;;;8.87;100.00;99318.25;6116205;23;20032;-90
2023/12/23 10:59:37;;;;;;;0.70;0.70;;;;;;;8.85;100.00;99306.97;6115806;23;20471;-89
2023/12/23 11:02:11;;;;;;;0.88;0.70;;;;;;;8.83;100.00;99315.06;6067157;23;20570;-89
2023/12/23 11:04:40;;;;;;;2.65;0.98;;;;;;;8.82;100.00;99304.59;6068481;23;20097;-90
2023/12/23 11:07:08;;;;;;;0.77;0.70;;;;;;;8.84;100.00;99284.13;6091344;23;20361;-90
2023/12/23 11:09:35;;;;;;;1.70;0.95;;;;;;;8.85;100.00;99307.81;6092136;23;20021;-90
2023/12/23 11:12:02;;;;;;;1.67;0.80;;;;;;;8.84;100.00;99315.88;6092900;23;20546;-89
2023/12/23 11:14:49;;;;;;;2.42;0.70;;;;;;;8.84;100.00;99313.25;6100118;23;20148;-90
2023/12/23 11:17:35;;;;;;;0.60;0.60;;;;;;;8.85;100.00;99336.94;6141279;23;20028;-89
2023/12/23 11:20:06;;;;;;;1.27;0.70;;;;;;;8.80;100.00;99333.88;6044507;23;20053;-90
2023/12/23 11:22:40;;;;;;;2.22;0.80;;;;;;;8.79;100.00;99340.13;6091274;23;20029;-89
2023/12/23 11:25:40;;;;;;;1.90;0.73;;;;;;;8.82;100.00;99345.13;6091480;23;20052;-89
2023/12/23 11:28:10;;;;;;;1.88;1.10;;;;;;;8.78;100.00;99354.34;6060684;23;20029;-90
2023/12/23 11:30:47;;;;;;;2.55;0.70;;;;;;;8.76;100.00;99360.75;6067982;23;20033;-89
2023/12/23 11:33:17;;;;;;;1.10;0.70;;;;;;;8.84;100.00;99371.50;6090808;23;20030;-90